createdAt,value
2023-04-20T00:02:24.086Z,2.63
2023-04-20T00:04:51.120Z,2.20
2023-04-20T00:07:18.167Z,1.90
2023-04-20T00:09:45.120Z,2.25
2023-04-20T00:12:11.927Z,2.50
2023-04-20T00:14:41.099Z,2.28
2023-04-20T00:17:08.108Z,2.33
2023-04-20T00:19:34.873Z,2.30
2023-04-20T00:22:01.646Z,2.00
2023-04-20T00:24:28.643Z,2.40
2023-04-20T00:26:55.409Z,2.45
2023-04-20T00:29:22.304Z,2.35
2023-04-20T00:31:49.459Z,2.13
2023-04-20T00:34:16.343Z,2.17
2023-04-20T00:36:43.231Z,3.00
2023-04-20T00:39:10.955Z,2.53
2023-04-20T00:41:38.162Z,2.47
2023-04-20T00:44:08.132Z,2.40
2023-04-20T00:46:34.961Z,2.20
2023-04-20T00:49:01.859Z,2.33
2023-04-20T00:51:29.531Z,2.13
2023-04-20T00:53:58.601Z,2.50
2023-04-20T00:56:25.885Z,2.28
2023-04-20T00:58:52.717Z,2.00
2023-04-20T01:01:22.631Z,2.40
2023-04-20T01:03:49.640Z,3.85
2023-04-20T01:06:17.935Z,2.10
2023-04-20T01:08:49.665Z,2.40
2023-04-20T01:11:16.645Z,2.25
2023-04-20T01:13:43.776Z,2.60
2023-04-20T01:16:12.025Z,2.25
2023-04-20T01:18:44.161Z,2.42
2023-04-20T01:21:12.598Z,2.78
2023-04-20T01:23:42.890Z,2.85
2023-04-20T01:26:15.627Z,3.00
2023-04-20T01:28:43.102Z,3.00
2023-04-20T01:31:11.267Z,2.50
2023-04-20T01:33:38.535Z,2.60
2023-04-20T01:36:07.407Z,2.55
2023-04-20T01:38:35.032Z,3.05
2023-04-20T01:41:06.986Z,3.25
2023-04-20T01:43:35.003Z,4.80
2023-04-20T01:46:02.069Z,4.63
2023-04-20T01:48:29.134Z,3.47
2023-04-20T01:50:55.974Z,2.63
2023-04-20T01:53:22.974Z,3.40
2023-04-20T01:55:51.525Z,3.15
2023-04-20T01:58:18.448Z,3.10
2023-04-20T02:00:45.280Z,3.40
2023-04-20T02:03:12.578Z,3.00
2023-04-20T02:05:39.458Z,3.20
2023-04-20T02:08:06.227Z,3.75
2023-04-20T02:10:33.012Z,3.30
2023-04-20T02:12:59.926Z,3.20
2023-04-20T02:15:26.871Z,3.22
2023-04-20T02:17:53.910Z,3.03
2023-04-20T02:20:21.275Z,3.25
2023-04-20T02:22:48.063Z,2.85
2023-04-20T02:25:15.345Z,2.53
2023-04-20T02:27:43.282Z,2.50
2023-04-20T02:30:12.620Z,2.42
2023-04-20T02:32:42.668Z,2.13
2023-04-20T02:35:09.686Z,3.00
2023-04-20T02:37:36.464Z,2.53
2023-04-20T02:40:05.754Z,2.47
2023-04-20T02:42:32.983Z,2.40
2023-04-20T02:45:02.110Z,3.10
2023-04-20T02:47:29.082Z,3.00
2023-04-20T02:49:56.028Z,2.80
2023-04-20T02:52:24.220Z,2.45
2023-04-20T02:54:51.610Z,3.03
2023-04-20T02:57:18.510Z,2.78
2023-04-20T02:59:45.386Z,2.88
2023-04-20T03:02:18.371Z,3.13
2023-04-20T03:04:45.532Z,3.13
2023-04-20T03:07:22.585Z,3.53
2023-04-20T03:09:49.551Z,3.53
2023-04-20T03:12:52.044Z,3.22
2023-04-20T03:15:39.065Z,3.92
2023-04-20T03:18:19.938Z,3.53
2023-04-20T03:20:47.312Z,3.97
2023-04-20T03:23:14.114Z,3.33
2023-04-20T03:25:41.625Z,3.28
2023-04-20T03:28:13.842Z,3.35
2023-04-20T03:30:41.309Z,3.05
2023-04-20T03:33:14.782Z,3.28
2023-04-20T03:35:43.167Z,3.63
2023-04-20T03:38:10.327Z,2.92
2023-04-20T03:40:37.196Z,2.97
2023-04-20T03:43:04.741Z,2.60
2023-04-20T03:45:31.597Z,2.58
2023-04-20T03:47:58.624Z,2.72
2023-04-20T03:50:26.387Z,2.60
2023-04-20T03:52:53.329Z,2.72
2023-04-20T03:55:20.934Z,2.53
2023-04-20T03:57:56.830Z,2.60
2023-04-20T04:00:24.776Z,2.97
2023-04-20T04:02:59.916Z,2.63
2023-04-20T04:05:28.620Z,2.70
2023-04-20T04:07:56.231Z,2.83
2023-04-20T04:10:23.283Z,2.42
2023-04-20T04:12:50.380Z,2.95
2023-04-20T04:15:19.609Z,3.20
2023-04-20T04:17:54.205Z,3.20
2023-04-20T04:20:22.154Z,3.10
2023-04-20T04:22:49.616Z,2.85
2023-04-20T04:25:33.747Z,3.10
2023-04-20T04:28:00.927Z,3.28
2023-04-20T04:30:30.129Z,2.95
2023-04-20T04:32:57.762Z,2.95
2023-04-20T04:35:24.636Z,3.55
2023-04-20T04:37:54.198Z,3.28
2023-04-20T04:40:21.898Z,3.83
2023-04-20T04:42:52.671Z,3.80
2023-04-20T04:45:20.132Z,3.80
2023-04-20T04:47:47.157Z,3.58
2023-04-20T04:50:14.059Z,3.85
2023-04-20T04:52:40.990Z,3.03
2023-04-20T04:55:09.891Z,3.38
2023-04-20T04:57:40.777Z,3.38
2023-04-20T05:02:41.989Z,2.78
2023-04-20T05:05:10.040Z,3.17
2023-04-20T05:07:38.525Z,3.13
2023-04-20T05:10:06.682Z,3.22
2023-04-20T05:12:33.673Z,3.15
2023-04-20T05:15:00.585Z,3.20
2023-04-20T05:17:27.445Z,3.30
2023-04-20T05:19:54.220Z,3.53
2023-04-20T05:22:21.260Z,3.20
2023-04-20T05:24:47.969Z,3.33
2023-04-20T05:27:14.760Z,3.25
2023-04-20T05:29:41.536Z,4.25
2023-04-20T05:32:08.860Z,4.45
2023-04-20T05:34:35.925Z,3.95
2023-04-20T05:37:05.437Z,3.67
2023-04-20T05:39:32.262Z,4.40
2023-04-20T05:41:58.991Z,4.07
2023-04-20T05:44:25.810Z,3.65
2023-04-20T05:46:52.585Z,4.00
2023-04-20T05:49:19.743Z,3.30
2023-04-20T05:51:46.787Z,4.05
2023-04-20T05:54:13.539Z,4.40
2023-04-20T05:56:40.591Z,5.60
2023-04-20T05:59:07.668Z,8.93
2023-04-20T06:01:34.625Z,12.45
2023-04-20T06:04:01.738Z,10.60
2023-04-20T06:06:28.529Z,8.50
2023-04-20T06:08:56.115Z,6.80
2023-04-20T06:11:23.560Z,6.07
2023-04-20T06:13:50.897Z,8.65
2023-04-20T06:16:17.700Z,8.38
2023-04-20T06:18:44.662Z,6.18
2023-04-20T06:21:12.573Z,5.53
2023-04-20T06:23:39.386Z,5.00
2023-04-20T06:26:08.876Z,4.90
2023-04-20T06:28:36.677Z,4.68
2023-04-20T06:31:04.422Z,3.95
2023-04-20T06:33:31.331Z,4.20
2023-04-20T06:35:58.324Z,3.90
2023-04-20T06:38:27.840Z,4.10
2023-04-20T06:40:54.688Z,5.50
2023-04-20T06:43:21.441Z,5.25
2023-04-20T06:45:48.067Z,4.93
2023-04-20T06:48:30.774Z,4.20
2023-04-20T06:50:58.817Z,4.03
2023-04-20T06:53:25.554Z,3.70
2023-04-20T06:55:54.914Z,3.53
2023-04-20T06:58:21.743Z,4.10
2023-04-20T07:00:48.449Z,3.90
2023-04-20T07:03:15.261Z,3.65
2023-04-20T07:05:42.176Z,4.28
2023-04-20T07:08:09.718Z,4.22
2023-04-20T07:10:36.468Z,3.80
2023-04-20T07:13:03.244Z,4.30
2023-04-20T07:15:30.067Z,3.85
2023-04-20T07:17:56.804Z,3.65
2023-04-20T07:20:23.931Z,3.53
2023-04-20T07:22:50.768Z,4.13
2023-04-20T07:25:17.864Z,4.05
2023-04-20T07:27:44.771Z,4.95
2023-04-20T07:30:12.300Z,4.00
2023-04-20T07:32:41.556Z,3.90
2023-04-20T07:35:09.268Z,3.65
2023-04-20T07:37:36.242Z,3.70
2023-04-20T07:40:06.286Z,4.30
2023-04-20T07:42:34.741Z,4.45
2023-04-20T07:45:01.587Z,3.80
2023-04-20T07:47:28.370Z,3.85
2023-04-20T07:49:55.238Z,3.90
2023-04-20T07:52:22.025Z,3.67
2023-04-20T07:54:48.759Z,3.65
2023-04-20T07:57:15.639Z,4.35
2023-04-20T07:59:42.395Z,3.10
2023-04-20T08:02:09.474Z,3.53
2023-04-20T08:04:40.606Z,3.22
2023-04-20T08:07:07.693Z,3.63
2023-04-20T08:09:34.433Z,4.13
2023-04-20T08:12:01.623Z,3.53
2023-04-20T08:14:28.383Z,4.03
2023-04-20T08:16:55.668Z,4.32
2023-04-20T08:19:23.130Z,3.83
2023-04-20T08:21:51.479Z,4.03
2023-04-20T08:24:18.420Z,4.47
2023-04-20T08:26:45.817Z,3.78
2023-04-20T08:29:12.511Z,3.38
2023-04-20T08:31:39.387Z,3.72
2023-04-20T08:34:06.365Z,2.97
2023-04-20T08:36:33.079Z,3.53
2023-04-20T08:39:12.104Z,3.20
2023-04-20T08:41:38.992Z,3.63
2023-04-20T08:44:07.360Z,3.20
2023-04-20T08:46:35.090Z,3.38
2023-04-20T08:49:04.966Z,2.78
2023-04-20T08:51:32.734Z,3.50
2023-04-20T08:54:08.869Z,3.55
2023-04-20T08:56:37.952Z,3.38
2023-04-20T08:59:10.650Z,3.97
2023-04-20T09:01:39.539Z,3.38
2023-04-20T09:04:22.574Z,3.22
2023-04-20T09:06:52.103Z,3.55
2023-04-20T09:09:20.058Z,3.25
2023-04-20T09:11:47.793Z,3.00
2023-04-20T09:14:20.837Z,3.15
2023-04-20T09:17:02.609Z,3.67
2023-04-20T09:19:30.607Z,3.83
2023-04-20T09:22:03.911Z,3.72
2023-04-20T09:24:35.475Z,3.92
2023-04-20T09:27:23.798Z,3.05
2023-04-20T09:30:09.826Z,5.15
2023-04-20T09:32:36.616Z,4.35
2023-04-20T09:35:03.507Z,3.65
2023-04-20T09:37:30.675Z,3.35
2023-04-20T09:40:00.858Z,3.60
2023-04-20T09:42:28.983Z,4.50
2023-04-20T09:44:57.225Z,3.60
2023-04-20T09:47:26.076Z,3.25
2023-04-20T09:49:54.420Z,3.17
2023-04-20T09:52:22.713Z,3.55
2023-04-20T09:54:51.641Z,3.78
2023-04-20T09:57:19.718Z,3.90
2023-04-20T09:59:47.659Z,3.05
2023-04-20T10:02:14.869Z,3.50
2023-04-20T10:04:58.561Z,3.85
2023-04-20T10:07:30.492Z,3.65
2023-04-20T10:10:08.320Z,3.88
2023-04-20T10:12:47.339Z,3.80
2023-04-20T10:15:14.095Z,3.40
2023-04-20T10:17:41.711Z,3.53
2023-04-20T10:20:22.874Z,3.40
2023-04-20T10:22:52.428Z,4.53
2023-04-20T10:25:26.935Z,4.47
2023-04-20T10:28:06.309Z,3.90
2023-04-20T10:30:34.720Z,4.03
2023-04-20T10:33:12.784Z,3.80
2023-04-20T10:35:45.281Z,3.75
2023-04-20T10:38:12.727Z,4.20
2023-04-20T10:40:39.736Z,3.35
2023-04-20T10:43:21.602Z,4.13
2023-04-20T10:45:50.078Z,4.15
2023-04-20T10:48:18.323Z,4.00
2023-04-20T10:50:45.709Z,4.40
2023-04-20T10:53:23.867Z,4.07
2023-04-20T10:56:03.095Z,4.07
2023-04-20T10:58:29.859Z,4.25
2023-04-20T11:01:05.132Z,3.60
2023-04-20T11:03:34.604Z,3.90
2023-04-20T11:06:02.583Z,3.90
2023-04-20T11:08:39.942Z,3.20
2023-04-20T11:11:21.367Z,3.53
2023-04-20T11:13:48.581Z,3.60
2023-04-20T11:16:17.574Z,3.97
2023-04-20T11:18:54.939Z,2.97
2023-04-20T11:21:22.746Z,2.80
2023-04-20T11:23:50.353Z,3.17
2023-04-20T11:26:17.216Z,3.28
2023-04-20T11:28:55.950Z,3.95
2023-04-20T11:31:23.440Z,3.40
2023-04-20T11:33:50.612Z,3.70
2023-04-20T11:36:28.533Z,3.80
2023-04-20T11:38:56.508Z,3.05
2023-04-20T11:41:23.278Z,3.05
2023-04-20T11:43:50.330Z,3.17
2023-04-20T11:46:19.308Z,3.33
2023-04-20T11:48:47.427Z,3.45
2023-04-20T11:51:14.920Z,2.83
2023-04-20T11:53:41.883Z,3.08
2023-04-20T11:56:09.084Z,3.53
2023-04-20T11:58:36.431Z,3.72
2023-04-20T12:01:05.663Z,3.13
2023-04-20T12:03:32.921Z,4.35
2023-04-20T12:05:59.843Z,2.90
2023-04-20T12:08:26.573Z,3.33
2023-04-20T12:10:53.486Z,2.70
2023-04-20T12:13:20.392Z,3.20
2023-04-20T12:15:47.166Z,3.67
2023-04-20T12:18:14.025Z,3.78
2023-04-20T12:20:40.843Z,3.15
2023-04-20T12:23:07.574Z,2.88
2023-04-20T12:25:34.451Z,3.40
2023-04-20T12:28:05.840Z,3.28
2023-04-20T12:30:34.677Z,3.10
2023-04-20T12:33:05.055Z,3.28
2023-04-20T12:35:31.844Z,3.05
2023-04-20T12:37:58.601Z,3.80
2023-04-20T12:40:25.604Z,3.58
2023-04-20T12:42:52.394Z,3.60
2023-04-20T12:45:19.634Z,3.28
2023-04-20T12:47:46.384Z,3.35
2023-04-20T12:50:13.405Z,3.33
2023-04-20T12:52:40.177Z,3.67
2023-04-20T12:55:08.062Z,3.80
2023-04-20T12:57:34.874Z,3.30
2023-04-20T13:00:05.967Z,3.38
2023-04-20T13:02:33.719Z,3.50
2023-04-20T13:05:01.890Z,3.80
2023-04-20T13:07:28.702Z,3.53
2023-04-20T13:09:55.600Z,3.50
2023-04-20T13:12:22.568Z,3.15
2023-04-20T13:14:49.493Z,3.10
2023-04-20T13:17:17.313Z,3.47
2023-04-20T13:19:47.044Z,4.47
2023-04-20T13:22:18.125Z,3.50
2023-04-20T13:24:46.044Z,4.00
2023-04-20T13:27:13.891Z,3.92
2023-04-20T13:29:41.487Z,4.07
2023-04-20T13:32:08.351Z,4.03
2023-04-20T13:34:35.175Z,3.83
2023-04-20T13:37:02.126Z,3.95
2023-04-20T13:39:29.604Z,3.38
2023-04-20T13:41:56.863Z,6.32
2023-04-20T13:44:23.697Z,3.55
2023-04-20T13:46:50.733Z,3.92
2023-04-20T13:49:17.484Z,3.22
2023-04-20T13:51:44.218Z,3.95
2023-04-20T13:54:12.406Z,3.85
2023-04-20T13:56:39.587Z,3.55
2023-04-20T13:59:06.420Z,3.30
2023-04-20T14:01:34.436Z,3.15
2023-04-20T14:04:01.536Z,3.45
2023-04-20T14:06:28.988Z,3.50
2023-04-20T14:08:55.713Z,3.80
2023-04-20T14:11:22.541Z,3.75
2023-04-20T14:13:49.324Z,2.88
2023-04-20T14:16:16.308Z,3.58
2023-04-20T14:18:43.075Z,4.18
2023-04-20T14:21:09.901Z,3.17
2023-04-20T14:23:37.050Z,3.65
2023-04-20T14:26:04.273Z,3.40
2023-04-20T14:28:33.277Z,3.47
2023-04-20T14:31:02.236Z,4.18
2023-04-20T14:33:29.156Z,3.17
2023-04-20T14:35:56.167Z,3.25
2023-04-20T14:38:24.800Z,2.72
2023-04-20T14:40:52.553Z,3.42
2023-04-20T14:43:19.345Z,2.60
2023-04-20T14:45:46.865Z,3.53
2023-04-20T14:48:13.758Z,3.88
2023-04-20T14:50:40.607Z,3.47
2023-04-20T14:53:07.536Z,3.40
2023-04-20T14:55:34.316Z,3.78
2023-04-20T14:58:01.055Z,3.47
2023-04-20T15:00:28.393Z,3.13
2023-04-20T15:03:01.535Z,2.80
2023-04-20T15:05:28.841Z,3.22
2023-04-20T15:07:57.528Z,3.35
2023-04-20T15:10:24.301Z,3.20
2023-04-20T15:12:51.105Z,2.90
2023-04-20T15:15:18.142Z,3.25
2023-04-20T15:17:46.950Z,3.25
2023-04-20T15:20:15.510Z,3.78
2023-04-20T15:22:42.350Z,3.10
2023-04-20T15:25:09.762Z,3.20
2023-04-20T15:27:36.562Z,3.30
2023-04-20T15:30:04.080Z,2.92
2023-04-20T15:32:30.907Z,3.22
2023-04-20T15:34:57.588Z,3.22
2023-04-20T15:37:24.343Z,3.85
2023-04-20T15:39:52.462Z,3.50
2023-04-20T15:42:19.293Z,3.30
2023-04-20T15:44:46.271Z,3.65
2023-04-20T15:47:13.159Z,2.88
2023-04-20T15:49:40.840Z,3.60
2023-04-20T15:52:08.679Z,3.60
2023-04-20T15:54:37.159Z,4.05
2023-04-20T15:57:04.080Z,3.97
2023-04-20T15:59:31.374Z,3.45
2023-04-20T16:01:58.470Z,3.05
2023-04-20T16:04:25.601Z,3.78
2023-04-20T16:06:52.573Z,3.15
2023-04-20T16:09:19.918Z,3.15
2023-04-20T16:11:47.251Z,3.90
2023-04-20T16:14:13.933Z,3.20
2023-04-20T16:16:40.787Z,4.10
2023-04-20T16:19:07.480Z,3.38
2023-04-20T16:21:34.401Z,3.58
2023-04-20T16:24:01.242Z,3.03
2023-04-20T16:26:28.051Z,3.42
2023-04-20T16:28:54.711Z,3.33
2023-04-20T16:31:21.599Z,3.55
2023-04-20T16:33:48.307Z,3.28
2023-04-20T16:36:16.586Z,3.33
2023-04-20T16:38:43.525Z,3.53
2023-04-20T16:41:10.686Z,4.43
2023-04-20T16:43:37.608Z,3.80
2023-04-20T16:46:04.592Z,3.05
2023-04-20T16:48:31.798Z,3.58
2023-04-20T16:50:58.623Z,3.40
2023-04-20T16:53:25.913Z,2.97
2023-04-20T16:55:52.665Z,3.10
2023-04-20T16:58:19.329Z,3.55
2023-04-20T17:00:46.300Z,3.45
2023-04-20T17:03:14.268Z,3.40
2023-04-20T17:05:42.227Z,3.83
2023-04-20T17:08:09.566Z,3.35
2023-04-20T17:10:39.490Z,3.00
2023-04-20T17:13:06.359Z,4.20
2023-04-20T17:15:33.512Z,3.08
2023-04-20T17:18:00.565Z,3.20
2023-04-20T17:20:27.343Z,3.65
2023-04-20T17:22:54.142Z,3.88
2023-04-20T17:25:20.958Z,4.22
2023-04-20T17:27:47.738Z,3.72
2023-04-20T17:30:14.794Z,3.88
2023-04-20T17:32:42.003Z,5.47
2023-04-20T17:35:09.081Z,5.65
2023-04-20T17:37:37.156Z,5.25
2023-04-20T17:40:06.307Z,4.20
2023-04-20T17:42:33.278Z,5.38
2023-04-20T17:45:00.174Z,4.18
2023-04-20T17:47:28.633Z,4.70
2023-04-20T17:49:56.257Z,4.40
2023-04-20T17:52:24.980Z,4.38
2023-04-20T17:54:53.978Z,5.07
2023-04-20T17:57:21.007Z,5.38
2023-04-20T17:59:47.775Z,4.75
2023-04-20T18:02:16.032Z,4.85
2023-04-20T18:04:43.049Z,5.55
2023-04-20T18:07:13.124Z,4.20
2023-04-20T18:09:40.195Z,6.22
2023-04-20T18:12:08.653Z,6.18
2023-04-20T18:14:35.701Z,5.45
2023-04-20T18:17:02.755Z,6.20
2023-04-20T18:19:29.924Z,5.53
2023-04-20T18:21:56.889Z,5.55
2023-04-20T18:24:23.682Z,5.25
2023-04-20T18:26:50.538Z,6.70
2023-04-20T18:29:17.568Z,7.28
2023-04-20T18:31:47.664Z,6.20
2023-04-20T18:34:15.184Z,7.05
2023-04-20T18:36:42.200Z,6.45
2023-04-20T18:39:09.797Z,6.18
2023-04-20T18:41:37.357Z,7.20
2023-04-20T18:44:04.754Z,7.13
2023-04-20T18:46:31.710Z,7.18
2023-04-20T18:48:58.708Z,8.13
2023-04-20T18:51:26.182Z,7.72
2023-04-20T18:53:53.322Z,9.00
2023-04-20T18:56:20.381Z,8.68
2023-04-20T18:58:47.146Z,7.63
2023-04-20T19:01:14.036Z,7.78
2023-04-20T19:03:41.246Z,8.48
2023-04-20T19:06:08.251Z,7.95
2023-04-20T19:08:35.396Z,7.95
2023-04-20T19:11:02.305Z,6.85
2023-04-20T19:13:29.113Z,7.00
2023-04-20T19:16:01.963Z,7.18
2023-04-20T19:18:28.936Z,6.97
2023-04-20T19:20:55.783Z,6.90
2023-04-20T19:23:22.585Z,6.70
2023-04-20T19:25:49.382Z,7.03
2023-04-20T19:28:16.253Z,7.20
2023-04-20T19:30:43.160Z,6.68
2023-04-20T19:33:10.127Z,6.45
2023-04-20T19:35:37.062Z,6.13
2023-04-20T19:38:04.168Z,6.82
2023-04-20T19:40:31.113Z,8.20
2023-04-20T19:42:58.184Z,7.43
2023-04-20T19:45:25.444Z,6.60
2023-04-20T19:47:52.433Z,5.43
2023-04-20T19:50:19.402Z,5.97
2023-04-20T19:52:46.458Z,6.05
2023-04-20T19:55:13.993Z,6.65
2023-04-20T19:57:41.162Z,5.95
2023-04-20T20:00:10.215Z,5.57
2023-04-20T20:02:40.664Z,4.95
2023-04-20T20:05:08.417Z,5.97
2023-04-20T20:07:35.868Z,5.45
2023-04-20T20:10:04.104Z,5.47
2023-04-20T20:12:31.192Z,4.78
2023-04-20T20:14:58.132Z,5.55
2023-04-20T20:17:25.071Z,4.78
2023-04-20T20:19:53.784Z,5.57
2023-04-20T20:22:22.057Z,6.38
2023-04-20T20:24:51.192Z,6.72
2023-04-20T20:27:18.054Z,6.55
2023-04-20T20:29:45.011Z,7.88
2023-04-20T20:32:11.831Z,7.47
2023-04-20T20:34:38.621Z,7.00
2023-04-20T20:37:05.434Z,6.97
2023-04-20T20:39:32.583Z,5.50
2023-04-20T20:42:00.044Z,6.97
2023-04-20T20:44:28.944Z,5.90
2023-04-20T20:46:56.046Z,6.07
2023-04-20T20:49:22.944Z,6.50
2023-04-20T20:51:50.028Z,6.38
2023-04-20T20:54:16.850Z,6.80
2023-04-20T20:56:43.889Z,5.88
2023-04-20T20:59:12.092Z,5.80
2023-04-20T21:01:39.346Z,6.82
2023-04-20T21:04:06.422Z,7.38
2023-04-20T21:06:33.849Z,7.25
2023-04-20T21:09:01.195Z,6.73
2023-04-20T21:11:28.104Z,6.43
2023-04-20T21:13:56.488Z,7.85
2023-04-20T21:16:23.564Z,7.10
2023-04-20T21:18:50.548Z,6.55
2023-04-20T21:21:17.404Z,6.30
2023-04-20T21:23:44.421Z,7.53
2023-04-20T21:26:11.145Z,6.55
2023-04-20T21:28:37.866Z,6.70
2023-04-20T21:31:04.823Z,6.82
2023-04-20T21:33:33.763Z,5.57
2023-04-20T21:36:00.626Z,5.70
2023-04-20T21:38:27.597Z,6.72
2023-04-20T21:40:54.375Z,5.78
2023-04-20T21:43:21.615Z,5.95
2023-04-20T21:45:48.446Z,5.30
2023-04-20T21:48:15.126Z,5.32
2023-04-20T21:50:44.498Z,5.32
2023-04-20T21:53:11.300Z,5.43
2023-04-20T21:55:37.982Z,5.75
2023-04-20T21:58:04.828Z,5.10
2023-04-20T22:00:31.713Z,5.97
2023-04-20T22:02:58.645Z,6.15
2023-04-20T22:05:26.195Z,6.03
2023-04-20T22:07:53.251Z,5.95
2023-04-20T22:10:20.359Z,5.40
2023-04-20T22:12:47.084Z,5.13
2023-04-20T22:15:14.859Z,4.57
2023-04-20T22:17:45.391Z,5.00
2023-04-20T22:20:14.058Z,4.63
2023-04-20T22:22:40.922Z,4.95
2023-04-20T22:25:08.857Z,4.78
2023-04-20T22:27:37.808Z,4.43
2023-04-20T22:30:06.158Z,5.03
2023-04-20T22:32:32.875Z,4.50
2023-04-20T22:34:59.601Z,4.72
2023-04-20T22:37:26.288Z,4.55
2023-04-20T22:39:53.027Z,4.38
2023-04-20T22:42:19.760Z,4.53
2023-04-20T22:44:46.470Z,4.35
2023-04-20T22:47:13.548Z,4.22
2023-04-20T22:49:41.878Z,4.68
2023-04-20T22:52:08.903Z,6.53
2023-04-20T22:54:37.593Z,6.43
2023-04-20T22:57:04.496Z,6.53
2023-04-20T22:59:31.310Z,5.25
2023-04-20T23:01:58.157Z,5.10
2023-04-20T23:04:25.030Z,4.95
2023-04-20T23:06:53.233Z,5.65
2023-04-20T23:09:20.806Z,5.10
2023-04-20T23:11:47.801Z,5.45
2023-04-20T23:14:14.672Z,5.57
2023-04-20T23:16:41.536Z,4.45
2023-04-20T23:19:08.457Z,4.45
2023-04-20T23:21:35.224Z,4.50
2023-04-20T23:24:02.146Z,4.38
2023-04-20T23:26:29.024Z,4.47
2023-04-20T23:28:55.708Z,3.85
2023-04-20T23:31:22.584Z,3.90
2023-04-20T23:33:49.427Z,3.85
2023-04-20T23:36:16.480Z,4.03
2023-04-20T23:38:46.072Z,4.47
2023-04-20T23:41:15.080Z,4.90
2023-04-20T23:43:42.549Z,4.57
2023-04-20T23:46:09.414Z,4.80
2023-04-20T23:48:36.283Z,4.47
2023-04-20T23:51:03.217Z,4.57
2023-04-20T23:53:29.883Z,4.80
2023-04-20T23:55:56.657Z,4.45
2023-04-20T23:58:25.111Z,4.35
